Time;durP1;ratioP1;P1;durP2;ratioP2;P2;SDS_P1;SDS_P2;PMS_P1;PMS_P2;Temp;Humidity;BMP_temperature;BMP_pressure;BME280_temperature;BME280_humidity;BME280_pressure;Samples;Min_cycle;Max_cycle;Signal;HPM_P1;HPM_P2
2023/11/23 00:00:17;0.00;0.00;0.62;0.00;0.00;0.62;2.20;1.70;;;20.30;26.30;;;;;;2252220;61;20441;-62
2023/11/23 00:03:01;0.00;0.00;0.62;0.00;0.00;0.62;4.10;2.20;;;20.30;26.30;;;;;;2252053;61;20383;-60
2023/11/23 00:05:46;0.00;0.00;0.62;0.00;0.00;0.62;2.67;1.37;;;20.30;26.30;;;;;;2252202;61;20511;-61
2023/11/23 00:08:30;0.00;0.00;0.62;0.00;0.00;0.62;2.10;1.43;;;20.30;26.30;;;;;;2252029;61;20846;-61
2023/11/23 00:11:15;0.00;0.00;0.62;0.00;0.00;0.62;2.57;1.93;;;20.30;26.40;;;;;;2252526;61;20823;-61
2023/11/23 00:14:01;0.00;0.00;0.62;0.00;0.00;0.62;2.17;1.47;;;20.30;26.30;;;;;;2252151;61;20363;-61
2023/11/23 00:16:46;0.00;0.00;0.62;0.00;0.00;0.62;2.07;1.53;;;20.30;26.90;;;;;;2251917;61;20515;-61
2023/11/23 00:19:30;0.00;0.00;0.62;0.00;0.00;0.62;2.53;1.53;;;20.30;26.30;;;;;;2251934;61;20427;-58
2023/11/23 00:22:16;0.00;0.00;0.62;0.00;0.00;0.62;2.43;1.80;;;20.30;26.30;;;;;;2251834;61;20386;-61
2023/11/23 00:25:02;0.00;0.00;0.62;0.00;0.00;0.62;2.53;1.50;;;20.30;26.30;;;;;;2252250;61;20373;-62
2023/11/23 00:27:47;0.00;0.00;0.62;0.00;0.00;0.62;2.17;1.57;;;20.30;26.30;;;;;;2252176;61;20898;-60
2023/11/23 00:30:33;0.00;0.00;0.62;0.00;0.00;0.62;2.00;1.50;;;20.30;26.40;;;;;;2251982;61;20421;-58
2023/11/23 00:33:17;0.00;0.00;0.62;0.00;0.00;0.62;2.03;1.40;;;20.20;26.30;;;;;;2251782;61;20367;-62
2023/11/23 00:36:05;0.00;0.00;0.62;0.00;0.00;0.62;2.17;1.60;;;20.30;26.40;;;;;;2251811;61;20362;-61
2023/11/23 00:38:49;0.00;0.00;0.62;0.00;0.00;0.62;2.13;1.13;;;20.20;26.30;;;;;;2251786;61;20437;-56
2023/11/23 00:41:35;0.00;0.00;0.62;0.00;0.00;0.62;2.17;1.50;;;20.30;26.40;;;;;;2254441;61;20362;-57
2023/11/23 00:44:20;0.00;0.00;0.62;0.00;0.00;0.62;2.23;1.73;;;20.30;26.40;;;;;;2251895;61;20441;-58
2023/11/23 00:47:06;0.00;0.00;0.62;0.00;0.00;0.62;2.10;1.50;;;20.20;26.30;;;;;;2254278;61;20382;-61
2023/11/23 00:49:51;0.00;0.00;0.62;0.00;0.00;0.62;2.10;1.53;;;20.20;26.30;;;;;;2252161;61;20386;-62
2023/11/23 00:52:35;0.00;0.00;0.62;0.00;0.00;0.62;2.60;1.50;;;20.20;26.30;;;;;;2251620;61;20366;-59
2023/11/23 00:55:21;0.00;0.00;0.62;0.00;0.00;0.62;2.47;1.50;;;20.20;26.30;;;;;;2252132;61;20781;-61
2023/11/23 00:58:05;0.00;0.00;0.62;0.00;0.00;0.62;2.47;1.80;;;20.20;26.30;;;;;;2252116;61;20823;-61
2023/11/23 01:00:50;0.00;0.00;0.62;0.00;0.00;0.62;1.73;1.20;;;20.20;26.40;;;;;;2251873;61;20410;-60
2023/11/23 01:03:36;0.00;0.00;0.62;0.00;0.00;0.62;1.93;1.37;;;20.20;26.90;;;;;;2251385;61;20425;-61
2023/11/23 01:06:20;0.00;0.00;0.62;0.00;0.00;0.62;3.80;2.03;;;20.20;26.40;;;;;;2254462;61;20386;-60
2023/11/23 01:09:06;0.00;0.00;0.62;0.00;0.00;0.62;3.30;1.57;;;20.20;26.40;;;;;;2254199;61;20567;-62
2023/11/23 01:11:51;0.00;0.00;0.62;0.00;0.00;0.62;2.50;1.70;;;20.20;26.40;;;;;;2254134;61;20354;-61
2023/11/23 01:14:35;0.00;0.00;0.62;0.00;0.00;0.62;1.90;1.40;;;20.20;26.40;;;;;;2251750;61;20363;-60
2023/11/23 01:17:20;0.00;0.00;0.62;0.00;0.00;0.62;2.20;1.40;;;20.20;26.40;;;;;;2252099;61;20418;-61
2023/11/23 01:20:08;0.00;0.00;0.62;0.00;0.00;0.62;2.83;1.80;;;20.20;26.40;;;;;;2252033;61;20875;-61
2023/11/23 01:22:54;0.00;0.00;0.62;0.00;0.00;0.62;2.40;1.60;;;20.20;26.40;;;;;;2251321;61;20430;-61
2023/11/23 01:25:39;0.00;0.00;0.62;0.00;0.00;0.62;2.07;1.73;;;20.20;26.40;;;;;;2252068;61;20402;-61
2023/11/23 01:28:23;0.00;0.00;0.62;0.00;0.00;0.62;2.17;1.63;;;20.20;26.40;;;;;;2252004;61;20390;-61
2023/11/23 01:31:09;0.00;0.00;0.62;0.00;0.00;0.62;2.40;1.80;;;20.20;26.40;;;;;;2251949;61;20422;-59
2023/11/23 01:33:53;0.00;0.00;0.62;0.00;0.00;0.62;2.30;1.60;;;20.20;26.40;;;;;;2252427;61;20370;-59
2023/11/23 01:36:39;0.00;0.00;0.62;0.00;0.00;0.62;3.60;1.87;;;20.20;26.40;;;;;;2252635;61;20362;-61
2023/11/23 01:39:25;0.00;0.00;0.62;0.00;0.00;0.62;2.30;1.77;;;20.20;26.40;;;;;;2252248;61;20391;-60
2023/11/23 01:42:10;0.00;0.00;0.62;0.00;0.00;0.62;2.67;1.93;;;20.20;26.40;;;;;;2252438;61;20447;-61
2023/11/23 01:44:54;0.00;0.00;0.62;0.00;0.00;0.62;3.13;2.03;;;20.20;26.40;;;;;;2252299;61;20367;-61
2023/11/23 01:47:44;0.00;0.00;0.62;0.00;0.00;0.62;2.83;2.10;;;20.20;26.40;;;;;;2255150;61;20371;-59
2023/11/23 01:50:30;0.00;0.00;0.62;0.00;0.00;0.62;2.70;2.00;;;20.20;26.40;;;;;;2252733;61;21028;-60
2023/11/23 01:53:17;0.00;0.00;0.62;0.00;0.00;0.62;3.27;2.27;;;20.20;26.40;;;;;;2252453;61;20374;-59
2023/11/23 01:56:01;0.00;0.00;0.62;0.00;0.00;0.62;2.10;1.43;;;20.20;26.40;;;;;;2259186;61;20419;-61
2023/11/23 01:58:47;0.00;0.00;0.62;0.00;0.00;0.62;2.27;1.70;;;20.20;26.40;;;;;;2256759;61;20448;-59
2023/11/23 02:01:32;0.00;0.00;0.62;0.00;0.00;0.62;2.33;1.47;;;20.20;26.50;;;;;;2258841;61;20903;-64
2023/11/23 02:04:17;0.00;0.00;0.62;0.00;0.00;0.62;2.10;1.60;;;20.20;26.50;;;;;;2256556;61;20457;-59
2023/11/23 02:07:02;0.00;0.00;0.62;0.00;0.00;0.62;2.70;1.80;;;20.20;26.50;;;;;;2256382;61;20867;-59
2023/11/23 02:09:48;0.00;0.00;0.62;0.00;0.00;0.62;2.63;2.00;;;20.20;26.50;;;;;;2256104;61;20931;-60
2023/11/23 02:12:32;0.00;0.00;0.62;0.00;0.00;0.62;2.57;1.70;;;20.30;26.60;;;;;;2258679;61;20366;-62
2023/11/23 02:15:22;0.00;0.00;0.62;0.00;0.00;0.62;2.20;1.67;;;20.20;26.50;;;;;;2258655;61;20378;-59
2023/11/23 02:18:10;0.00;0.00;0.62;0.00;0.00;0.62;2.17;1.50;;;20.20;26.50;;;;;;2250130;61;20428;-61
2023/11/23 02:20:57;0.00;0.00;0.62;0.00;0.00;0.62;3.10;2.07;;;20.20;26.50;;;;;;2256642;61;20366;-60
2023/11/23 02:23:41;0.00;0.00;0.62;0.00;0.00;0.62;3.13;2.17;;;20.20;26.50;;;;;;2256481;61;20491;-60
2023/11/23 02:26:27;0.00;0.00;0.62;0.00;0.00;0.62;2.77;2.13;;;20.20;26.50;;;;;;2256747;61;20711;-62
2023/11/23 02:29:12;0.00;0.00;0.62;0.00;0.00;0.62;3.43;1.80;;;20.20;26.50;;;;;;2256102;61;20497;-60
2023/11/23 02:31:57;0.00;0.00;0.62;0.00;0.00;0.62;2.83;1.70;;;20.20;26.50;;;;;;2258619;61;20366;-61
2023/11/23 02:34:42;0.00;0.00;0.62;0.00;0.00;0.62;3.20;1.87;;;20.20;26.50;;;;;;2256715;61;20357;-62
2023/11/23 02:37:26;0.00;0.00;0.62;0.00;0.00;0.62;3.37;2.10;;;20.20;26.60;;;;;;2255693;61;20836;-60
2023/11/23 02:40:11;0.00;0.00;0.62;0.00;0.00;0.62;2.77;1.80;;;20.20;26.60;;;;;;2256240;61;20433;-64
2023/11/23 02:42:58;0.00;0.00;0.62;0.00;0.00;0.62;1.90;1.37;;;20.20;26.60;;;;;;2255892;61;20484;-59
2023/11/23 02:45:43;0.00;0.00;0.62;0.00;0.00;0.62;2.50;1.73;;;20.20;26.60;;;;;;2258701;61;20780;-61
2023/11/23 02:48:27;0.00;0.00;0.62;0.00;0.00;0.62;2.83;1.80;;;20.20;26.60;;;;;;2256415;61;20397;-59
2023/11/23 02:51:14;0.00;0.00;0.62;0.00;0.00;0.62;2.70;1.70;;;20.20;26.60;;;;;;2256323;61;20413;-61
2023/11/23 02:53:59;0.00;0.00;0.62;0.00;0.00;0.62;2.63;2.00;;;20.20;26.60;;;;;;2258941;61;20401;-58
2023/11/23 02:56:44;0.00;0.00;0.62;0.00;0.00;0.62;2.80;1.93;;;20.20;26.60;;;;;;2258743;61;20405;-57
2023/11/23 02:59:29;0.00;0.00;0.62;0.00;0.00;0.62;2.90;2.23;;;20.20;26.60;;;;;;2258443;61;20939;-59
2023/11/23 03:02:14;0.00;0.00;0.62;0.00;0.00;0.62;2.53;1.67;;;20.20;26.60;;;;;;2255584;61;20373;-61
2023/11/23 03:04:58;0.00;0.00;0.62;0.00;0.00;0.62;3.27;2.13;;;20.20;26.60;;;;;;2259014;61;20397;-58
2023/11/23 03:07:43;0.00;0.00;0.62;0.00;0.00;0.62;1.90;1.40;;;20.20;26.60;;;;;;2256337;61;20460;-61
2023/11/23 03:10:29;0.00;0.00;0.62;0.00;0.00;0.62;1.90;1.40;;;20.20;26.60;;;;;;2256521;61;20401;-59
2023/11/23 03:13:14;0.00;0.00;0.62;0.00;0.00;0.62;2.80;1.87;;;20.20;26.60;;;;;;2255709;61;20406;-62
2023/11/23 03:16:00;0.00;0.00;0.62;0.00;0.00;0.62;4.17;2.20;;;20.20;26.70;;;;;;2258990;61;20393;-60
2023/11/23 03:18:44;0.00;0.00;0.62;0.00;0.00;0.62;3.40;1.60;;;20.20;26.70;;;;;;2256397;61;20935;-61
2023/11/23 03:21:29;0.00;0.00;0.62;0.00;0.00;0.62;2.40;1.80;;;20.20;26.70;;;;;;2256206;61;20439;-57
2023/11/23 03:24:15;0.00;0.00;0.62;0.00;0.00;0.62;3.27;1.90;;;20.20;26.70;;;;;;2256346;61;20390;-60
2023/11/23 03:26:59;0.00;0.00;0.62;0.00;0.00;0.62;2.67;2.10;;;20.20;26.70;;;;;;2258747;61;20367;-61
2023/11/23 03:29:44;0.00;0.00;0.62;0.00;0.00;0.62;3.00;1.83;;;20.20;26.70;;;;;;2256243;61;20412;-59
2023/11/23 03:32:32;0.00;0.00;0.62;0.00;0.00;0.62;2.70;1.57;;;20.20;26.70;;;;;;2256110;61;20370;-59
2023/11/23 03:35:17;0.00;0.00;0.62;0.00;0.00;0.62;2.57;2.00;;;20.20;26.70;;;;;;2258352;61;20406;-60
2023/11/23 03:38:03;0.00;0.00;0.62;0.00;0.00;0.62;3.40;2.30;;;20.20;26.70;;;;;;2256517;61;20409;-61
2023/11/23 03:40:48;0.00;0.00;0.62;0.00;0.00;0.62;2.60;1.80;;;20.20;26.70;;;;;;2256360;61;20366;-60
2023/11/23 03:43:32;0.00;0.00;0.62;0.00;0.00;0.62;2.37;1.77;;;20.20;26.70;;;;;;2257898;61;20421;-61
2023/11/23 03:46:17;0.00;0.00;0.62;0.00;0.00;0.62;4.83;2.23;;;20.20;26.80;;;;;;2256360;61;20534;-60
2023/11/23 03:49:04;0.00;0.00;0.62;0.00;0.00;0.62;2.80;2.23;;;20.20;26.70;;;;;;2256140;61;20393;-60
2023/11/23 03:51:48;0.00;0.00;0.62;0.00;0.00;0.62;3.60;2.17;;;20.20;26.70;;;;;;2255720;61;20783;-61
2023/11/23 03:54:33;0.00;0.00;0.62;0.00;0.00;0.62;2.47;1.60;;;20.20;26.70;;;;;;2256524;61;20342;-60
2023/11/23 03:57:18;0.00;0.00;0.62;0.00;0.00;0.62;3.27;2.20;;;20.20;26.70;;;;;;2256028;61;20887;-55
2023/11/23 04:00:06;0.00;0.00;0.62;0.00;0.00;0.62;2.70;1.93;;;20.20;26.80;;;;;;2256290;61;20391;-57
2023/11/23 04:02:51;0.00;0.00;0.62;0.00;0.00;0.62;3.13;1.87;;;20.20;26.70;;;;;;2256012;61;20405;-59
2023/11/23 04:05:37;0.00;0.00;0.62;0.00;0.00;0.62;2.33;1.83;;;20.20;26.70;;;;;;2256252;61;20361;-59
2023/11/23 04:08:23;0.00;0.00;0.62;0.00;0.00;0.62;2.80;2.20;;;20.20;26.80;;;;;;2256272;61;20437;-60
2023/11/23 04:11:10;0.00;0.00;0.62;0.00;0.00;0.62;2.50;1.93;;;20.20;26.70;;;;;;2256388;61;20393;-61
2023/11/23 04:13:55;0.00;0.00;0.62;0.00;0.00;0.62;2.57;1.90;;;20.20;26.70;;;;;;2255818;61;20880;-61
2023/11/23 04:16:39;0.00;0.00;0.62;0.00;0.00;0.62;2.40;1.70;;;20.20;26.70;;;;;;2255430;61;20369;-61
2023/11/23 04:19:24;0.00;0.00;0.62;0.00;0.00;0.62;2.60;1.80;;;20.20;26.70;;;;;;2256137;61;20390;-60
2023/11/23 04:22:10;0.00;0.00;0.62;0.00;0.00;0.62;2.87;1.90;;;20.20;26.70;;;;;;2258247;61;20389;-60
2023/11/23 04:24:55;0.00;0.00;0.62;0.00;0.00;0.62;2.50;2.00;;;20.20;26.70;;;;;;2259205;61;20847;-58
2023/11/23 04:27:41;0.00;0.00;0.62;0.00;0.00;0.62;3.00;1.77;;;20.20;26.70;;;;;;2258684;61;20366;-58
2023/11/23 04:30:26;0.00;0.00;0.62;0.00;0.00;0.62;2.50;1.90;;;20.20;26.70;;;;;;2261577;61;20366;-55
2023/11/23 04:33:11;0.00;0.00;0.62;0.00;0.00;0.62;2.87;2.50;;;20.20;26.70;;;;;;2261229;61;20384;-55
2023/11/23 04:35:56;0.00;0.00;0.62;0.00;0.00;0.62;2.50;1.80;;;20.20;26.70;;;;;;2258777;61;20420;-61
2023/11/23 04:38:42;0.00;0.00;0.62;0.00;0.00;0.62;2.50;1.93;;;20.20;26.70;;;;;;2258895;61;20385;-56
2023/11/23 04:41:27;0.00;0.00;0.62;0.00;0.00;0.62;2.13;1.50;;;20.20;26.70;;;;;;2259354;61;20438;-54
2023/11/23 04:44:11;0.00;0.00;0.62;0.00;0.00;0.62;2.60;1.97;;;20.20;26.70;;;;;;2259212;61;20482;-60
2023/11/23 04:46:56;0.00;0.00;0.62;0.00;0.00;0.62;2.93;2.53;;;20.20;26.70;;;;;;2259143;61;20394;-58
2023/11/23 04:49:40;0.00;0.00;0.62;0.00;0.00;0.62;1.80;1.47;;;20.20;26.70;;;;;;2290779;48;20445;-61
2023/11/23 04:52:25;0.00;0.00;0.62;0.00;0.00;0.62;2.40;1.93;;;20.20;26.70;;;;;;2250592;61;20419;-57
2023/11/23 04:55:11;0.00;0.00;0.62;0.00;0.00;0.62;2.63;2.03;;;20.20;26.80;;;;;;2253494;61;20374;-61
2023/11/23 04:57:55;0.00;0.00;0.62;0.00;0.00;0.62;2.60;2.00;;;20.20;26.70;;;;;;2254849;61;20394;-60
2023/11/23 05:00:40;0.00;0.00;0.62;0.00;0.00;0.62;2.33;1.90;;;20.20;26.70;;;;;;2251309;61;20372;-60
2023/11/23 05:03:25;0.00;0.00;0.62;0.00;0.00;0.62;3.13;2.00;;;20.20;26.80;;;;;;2250825;61;20395;-59
2023/11/23 05:06:10;0.00;0.00;0.62;0.00;0.00;0.62;2.97;1.93;;;20.20;26.70;;;;;;2251552;61;20375;-60
2023/11/23 05:08:55;0.00;0.00;0.62;0.00;0.00;0.62;2.27;1.90;;;20.20;26.70;;;;;;2251614;61;20387;-56
2023/11/23 05:11:41;0.00;0.00;0.62;0.00;0.00;0.62;2.90;2.13;;;20.20;26.70;;;;;;2250954;61;20375;-58
2023/11/23 05:14:25;0.00;0.00;0.62;0.00;0.00;0.62;1.90;1.47;;;20.20;26.80;;;;;;2251490;61;20372;-59
2023/11/23 05:17:10;0.00;0.00;0.62;0.00;0.00;0.62;2.80;2.20;;;20.20;26.70;;;;;;2251893;61;20375;-56
2023/11/23 05:19:54;0.00;0.00;0.62;0.00;0.00;0.62;2.47;2.00;;;20.20;26.70;;;;;;2253657;61;20447;-58
2023/11/23 05:22:39;0.00;0.00;0.62;0.00;0.00;0.62;2.60;1.90;;;20.20;26.70;;;;;;2247764;61;20510;-58
2023/11/23 05:25:24;0.00;0.00;0.62;0.00;0.00;0.62;2.70;1.93;;;20.20;26.70;;;;;;2251790;61;20756;-58
2023/11/23 05:28:11;0.00;0.00;0.62;0.00;0.00;0.62;3.30;1.73;;;20.20;26.80;;;;;;2248265;61;20367;-59
2023/11/23 05:30:56;0.00;0.00;0.62;0.00;0.00;0.62;2.27;2.00;;;20.20;26.70;;;;;;2248407;61;20438;-61
2023/11/23 05:33:40;0.00;0.00;0.62;0.00;0.00;0.62;2.20;1.53;;;20.20;26.70;;;;;;2251008;61;20435;-60
2023/11/23 05:36:25;0.00;0.00;0.62;0.00;0.00;0.62;2.40;1.83;;;20.20;26.70;;;;;;2251139;61;20380;-61
2023/11/23 05:39:11;0.00;0.00;0.62;0.00;0.00;0.62;2.53;1.57;;;20.20;26.80;;;;;;2251313;61;20842;-63
2023/11/23 05:41:56;0.00;0.00;0.62;0.00;0.00;0.62;3.03;2.00;;;20.20;26.70;;;;;;2247763;61;20395;-60
2023/11/23 05:44:41;0.00;0.00;0.62;0.00;0.00;0.62;2.30;1.90;;;20.20;26.80;;;;;;2251462;61;20387;-62
2023/11/23 05:47:26;0.00;0.00;0.62;0.00;0.00;0.62;2.43;1.53;;;20.20;26.70;;;;;;2251675;61;20845;-59
2023/11/23 05:50:11;0.00;0.00;0.62;0.00;0.00;0.62;2.50;1.83;;;20.20;26.70;;;;;;2251497;61;20824;-57
2023/11/23 05:52:56;0.00;0.00;0.62;0.00;0.00;0.62;2.40;1.90;;;20.20;26.70;;;;;;2251195;61;20372;-59
2023/11/23 05:55:40;0.00;0.00;0.62;0.00;0.00;0.62;2.93;1.83;;;20.20;26.70;;;;;;2251429;61;20371;-62
2023/11/23 05:58:26;0.00;0.00;0.62;0.00;0.00;0.62;2.40;1.60;;;20.20;26.70;;;;;;2251441;61;20439;-60
2023/11/23 06:01:12;0.00;0.00;0.62;0.00;0.00;0.62;2.43;1.87;;;20.20;26.70;;;;;;2251797;61;20363;-56
2023/11/23 06:03:56;0.00;0.00;0.62;0.00;0.00;0.62;2.10;1.50;;;20.20;26.80;;;;;;2251095;61;20391;-52
2023/11/23 06:06:41;0.00;0.00;0.62;0.00;0.00;0.62;2.40;1.70;;;20.20;26.70;;;;;;2251494;61;20375;-57
2023/11/23 06:09:27;0.00;0.00;0.62;0.00;0.00;0.62;2.33;1.90;;;20.20;26.70;;;;;;2254190;61;20431;-56
2023/11/23 06:12:12;0.00;0.00;0.62;0.00;0.00;0.62;1.90;1.47;;;20.20;26.70;;;;;;2247747;61;20363;-58
2023/11/23 06:14:57;0.00;0.00;0.62;0.00;0.00;0.62;1.90;1.47;;;20.20;26.70;;;;;;2251464;61;20852;-54
2023/11/23 06:17:44;0.00;0.00;0.62;0.00;0.00;0.62;2.47;1.70;;;20.20;26.70;;;;;;2248421;61;20364;-59
2023/11/23 06:20:29;0.00;0.00;0.62;0.00;0.00;0.62;2.60;2.00;;;20.20;26.70;;;;;;2251563;61;20391;-57
2023/11/23 06:23:14;0.00;0.00;0.62;0.00;0.00;0.62;2.33;1.70;;;20.20;26.80;;;;;;2251190;61;20981;-55
2023/11/23 06:25:59;0.00;0.00;0.62;0.00;0.00;0.62;2.30;1.97;;;20.20;26.80;;;;;;2251237;61;20448;-58
2023/11/23 06:28:43;0.00;0.00;0.62;0.00;0.00;0.62;2.03;1.63;;;20.20;26.70;;;;;;2251605;61;20387;-59
2023/11/23 06:31:28;0.00;0.00;0.62;0.00;0.00;0.62;3.47;1.90;;;20.20;26.70;;;;;;2251613;61;20411;-61
2023/11/23 06:34:14;0.00;0.00;0.62;0.00;0.00;0.62;2.17;1.60;;;20.20;26.70;;;;;;2247721;61;20415;-56
2023/11/23 06:36:58;0.00;0.00;0.62;0.00;0.00;0.62;2.37;1.63;;;20.20;26.70;;;;;;2251110;61;20372;-55
2023/11/23 06:39:43;0.00;0.00;0.62;0.00;0.00;0.62;2.00;1.60;;;20.20;26.70;;;;;;2248151;61;20477;-58
2023/11/23 06:42:27;0.00;0.00;0.62;0.00;0.00;0.62;2.57;1.70;;;20.20;26.70;;;;;;2247539;61;20628;-58
2023/11/23 06:45:15;0.00;0.00;0.62;0.00;0.00;0.62;2.53;1.63;;;20.20;26.80;;;;;;2251004;61;20826;-61
2023/11/23 06:47:59;0.00;0.00;0.62;0.00;0.00;0.62;2.37;1.93;;;20.20;26.70;;;;;;2247617;61;20367;-58
2023/11/23 06:50:45;0.00;0.00;0.62;0.00;0.00;0.62;2.40;1.93;;;20.20;26.70;;;;;;2251566;61;20500;-58
2023/11/23 06:53:30;0.00;0.00;0.62;0.00;0.00;0.62;2.20;1.57;;;20.20;26.80;;;;;;2250972;61;20364;-54
2023/11/23 06:56:16;0.00;0.00;0.62;0.00;0.00;0.62;2.30;1.90;;;20.20;26.80;;;;;;2250972;61;20364;-59
2023/11/23 06:59:01;0.00;0.00;0.62;0.00;0.00;0.62;3.10;2.20;;;20.20;26.80;;;;;;2248354;61;20811;-57
2023/11/23 07:01:46;0.00;0.00;0.62;0.00;0.00;0.62;3.30;1.97;;;20.20;26.80;;;;;;2251133;61;20447;-60
2023/11/23 07:04:31;0.00;0.00;0.62;0.00;0.00;0.62;2.60;1.83;;;20.20;26.80;;;;;;2251254;61;20449;-57
2023/11/23 07:07:17;0.00;0.00;0.62;0.00;0.00;0.62;2.73;2.10;;;20.20;26.80;;;;;;2251405;61;20383;-61
2023/11/23 07:10:02;0.00;0.00;0.62;0.00;0.00;0.62;2.40;1.80;;;20.30;26.90;;;;;;2250851;61;20384;-56
2023/11/23 07:12:47;0.00;0.00;0.62;0.00;0.00;0.62;2.33;1.73;;;20.20;26.90;;;;;;2250991;61;20383;-55
2023/11/23 07:15:32;0.00;0.00;0.62;0.00;0.00;0.62;2.20;1.73;;;20.20;26.90;;;;;;2251198;61;20651;-58
2023/11/23 07:18:16;0.00;0.00;0.62;0.00;0.00;0.62;2.67;2.00;;;20.20;26.90;;;;;;2251134;61;20364;-59
2023/11/23 07:21:01;0.00;0.00;0.62;0.00;0.00;0.62;3.60;2.00;;;20.20;26.90;;;;;;2251172;61;20434;-59
2023/11/23 07:23:47;0.00;0.00;0.62;0.00;0.00;0.62;2.40;2.10;;;20.20;26.90;;;;;;2250949;61;20403;-56
2023/11/23 07:26:31;0.00;0.00;0.62;0.00;0.00;0.62;3.00;2.20;;;20.20;26.90;;;;;;2251144;61;20371;-55
2023/11/23 07:29:16;0.00;0.00;0.62;0.00;0.00;0.62;3.50;2.03;;;20.30;27.00;;;;;;2255006;61;20887;-58
2023/11/23 07:32:00;0.00;0.00;0.62;0.00;0.00;0.62;2.77;2.37;;;20.20;26.90;;;;;;2254497;61;20457;-58
2023/11/23 07:34:45;0.00;0.00;0.62;0.00;0.00;0.62;2.97;2.13;;;20.30;27.00;;;;;;2255229;61;20371;-60
2023/11/23 07:37:30;0.00;0.00;0.62;0.00;0.00;0.62;3.13;2.13;;;20.30;27.60;;;;;;2255102;61;20413;-58
2023/11/23 07:40:16;0.00;0.00;0.62;0.00;0.00;0.62;2.27;1.93;;;20.20;27.00;;;;;;2254558;61;20952;-59
2023/11/23 07:43:01;0.00;0.00;0.62;0.00;0.00;0.62;2.10;1.60;;;20.20;27.00;;;;;;2254906;61;20765;-59
2023/11/23 07:45:46;0.00;0.00;0.62;0.00;0.00;0.62;2.47;1.80;;;20.30;27.00;;;;;;2255008;61;20861;-58
2023/11/23 07:48:31;0.00;0.00;0.62;0.00;0.00;0.62;1.90;1.60;;;20.20;27.50;;;;;;2254279;61;20425;-60
2023/11/23 07:51:15;0.00;0.00;0.62;0.00;0.00;0.62;3.13;2.20;;;20.30;27.10;;;;;;2255171;61;20370;-59
2023/11/23 07:54:00;0.00;0.00;0.62;0.00;0.00;0.62;2.50;1.90;;;20.30;27.10;;;;;;2250267;61;20420;-59
2023/11/23 07:56:46;0.00;0.00;0.62;0.00;0.00;0.62;2.20;1.90;;;20.30;27.10;;;;;;2247012;61;20443;-59
2023/11/23 07:59:34;0.00;0.00;0.62;0.00;0.00;0.62;2.73;1.83;;;20.30;27.10;;;;;;2246991;61;20500;-59
2023/11/23 08:02:18;0.00;0.00;0.62;0.00;0.00;0.62;2.87;1.83;;;20.30;27.10;;;;;;2248644;61;20385;-59
2023/11/23 08:05:05;0.00;0.00;0.62;0.00;0.00;0.62;2.07;1.70;;;20.30;27.10;;;;;;2247017;61;20399;-60
2023/11/23 08:07:50;0.00;0.00;0.62;0.00;0.00;0.62;3.20;2.23;;;20.30;27.10;;;;;;2246807;61;20926;-60
2023/11/23 08:10:35;0.00;0.00;0.62;0.00;0.00;0.62;2.20;1.83;;;20.30;27.20;;;;;;2246365;61;20388;-61
2023/11/23 08:13:21;0.00;0.00;0.62;0.00;0.00;0.62;3.47;1.90;;;20.30;27.20;;;;;;2246821;61;20380;-60
2023/11/23 08:16:06;0.00;0.00;0.62;0.00;0.00;0.62;2.60;2.20;;;20.30;27.20;;;;;;2247058;61;20364;-61
2023/11/23 08:18:51;0.00;0.00;0.62;0.00;0.00;0.62;2.53;2.00;;;20.30;27.20;;;;;;2246859;61;20417;-57
2023/11/23 08:21:37;0.00;0.00;0.62;0.00;0.00;0.62;3.40;2.00;;;20.30;27.20;;;;;;2246522;61;20894;-62
2023/11/23 08:24:21;0.00;0.00;0.62;0.00;0.00;0.62;2.70;2.33;;;20.30;27.20;;;;;;2246133;61;20416;-61
2023/11/23 08:27:06;0.00;0.00;0.62;0.00;0.00;0.62;3.00;2.30;;;20.30;27.20;;;;;;2249414;61;20408;-58
2023/11/23 08:29:53;0.00;0.00;0.62;0.00;0.00;0.62;3.87;2.27;;;20.30;27.20;;;;;;2247246;61;20388;-61
2023/11/23 08:32:38;0.00;0.00;0.62;0.00;0.00;0.62;3.30;2.50;;;20.30;27.20;;;;;;2246091;61;20941;-60
2023/11/23 08:35:22;0.00;0.00;0.62;0.00;0.00;0.62;3.23;2.43;;;20.30;27.30;;;;;;2246994;61;20385;-59
2023/11/23 08:38:07;0.00;0.00;0.62;0.00;0.00;0.62;3.00;2.10;;;20.30;27.30;;;;;;2246899;61;20360;-58
2023/11/23 08:40:51;0.00;0.00;0.62;0.00;0.00;0.62;2.70;2.20;;;20.30;27.20;;;;;;2246825;61;20371;-59
2023/11/23 08:43:37;0.00;0.00;0.62;0.00;0.00;0.62;2.57;2.10;;;20.30;27.30;;;;;;2247408;61;20476;-61
2023/11/23 08:46:22;0.00;0.00;0.62;0.00;0.00;0.62;4.83;2.90;;;20.30;27.30;;;;;;2247011;61;20440;-57
2023/11/23 08:49:10;0.00;0.00;0.62;0.00;0.00;0.62;3.53;2.70;;;20.30;27.30;;;;;;2247910;61;20392;-55
2023/11/23 08:51:55;0.00;0.00;0.62;0.00;0.00;0.62;2.63;2.10;;;20.30;27.30;;;;;;2248263;61;20371;-59
2023/11/23 08:54:39;0.00;0.00;0.62;0.00;0.00;0.62;3.13;2.57;;;20.30;27.30;;;;;;2251444;61;20404;-60
2023/11/23 08:57:24;0.00;0.00;0.62;0.00;0.00;0.62;2.70;1.90;;;20.30;27.30;;;;;;2251747;61;20368;-62
2023/11/23 09:00:10;0.00;0.00;0.62;0.00;0.00;0.62;2.50;2.10;;;20.30;27.30;;;;;;2248405;61;20450;-60
2023/11/23 09:02:56;0.00;0.00;0.62;0.00;0.00;0.62;3.70;2.37;;;20.30;27.30;;;;;;2250952;61;21053;-60
2023/11/23 09:05:41;0.00;0.00;0.62;0.00;0.00;0.62;3.10;2.80;;;20.30;27.30;;;;;;2251819;61;20395;-58
2023/11/23 09:08:26;0.00;0.00;0.62;0.00;0.00;0.62;3.00;2.37;;;20.30;27.30;;;;;;2251163;61;20463;-58
2023/11/23 09:11:11;0.00;0.00;0.62;0.00;0.00;0.62;3.60;2.60;;;20.30;27.30;;;;;;2251620;61;20404;-57
2023/11/23 09:13:55;0.00;0.00;0.62;0.00;0.00;0.62;2.57;2.07;;;20.30;27.40;;;;;;2251586;61;20364;-56
2023/11/23 09:16:41;0.00;0.00;0.62;0.00;0.00;0.62;3.07;2.43;;;20.30;27.40;;;;;;2251194;61;20443;-60
2023/11/23 09:19:28;0.00;0.00;0.62;0.00;0.00;0.62;3.30;2.77;;;20.40;27.40;;;;;;2251920;61;20387;-58
2023/11/23 09:22:13;0.00;0.00;0.62;0.00;0.00;0.62;3.00;2.70;;;20.30;27.40;;;;;;2251153;61;20380;-59
2023/11/23 09:24:58;0.00;0.00;0.62;0.00;0.00;0.62;2.87;2.40;;;20.30;27.40;;;;;;2251189;61;20410;-54
2023/11/23 09:27:42;0.00;0.00;0.62;0.00;0.00;0.62;2.80;2.50;;;20.40;27.50;;;;;;2251612;61;20427;-56
2023/11/23 09:30:27;0.00;0.00;0.62;0.00;0.00;0.62;3.60;2.90;;;20.30;27.40;;;;;;2250718;61;20436;-59
2023/11/23 09:33:11;0.00;0.00;0.62;0.00;0.00;0.62;3.20;2.40;;;20.40;27.50;;;;;;2251130;61;20419;-58
2023/11/23 09:36:02;0.00;0.00;0.62;0.00;0.00;0.62;3.50;3.03;;;20.40;27.50;;;;;;2251463;61;20375;-59
2023/11/23 09:38:46;0.00;0.00;0.62;0.00;0.00;0.62;3.07;2.40;;;20.30;27.40;;;;;;2251445;61;20969;-60
2023/11/23 09:41:35;0.00;0.00;0.62;0.00;0.00;0.62;3.77;2.63;;;20.40;27.50;;;;;;2251634;61;20452;-61
2023/11/23 09:44:21;0.00;0.00;0.62;0.00;0.00;0.62;2.57;2.10;;;20.40;27.50;;;;;;2251144;61;20953;-62
2023/11/23 09:47:06;0.00;0.00;0.62;0.00;0.00;0.62;3.40;2.73;;;20.40;27.50;;;;;;2251410;61;20364;-60
2023/11/23 09:49:51;0.00;0.00;0.62;0.00;0.00;0.62;2.80;2.23;;;20.40;27.50;;;;;;2251520;61;20474;-59
2023/11/23 09:52:38;0.00;0.00;0.62;0.00;0.00;0.62;3.23;2.47;;;20.40;27.50;;;;;;2250938;61;20399;-58
2023/11/23 09:55:25;0.00;0.00;0.62;0.00;0.00;0.62;3.73;2.47;;;20.40;27.60;;;;;;2251522;61;20913;-57
2023/11/23 09:58:11;0.00;0.00;0.62;0.00;0.00;0.62;5.40;2.27;;;20.40;27.60;;;;;;2251450;61;20913;-59
2023/11/23 10:00:59;0.00;0.00;0.62;0.00;0.00;0.62;3.13;2.50;;;20.40;27.60;;;;;;2251363;61;20384;-62
2023/11/23 10:03:52;0.00;0.00;0.62;0.00;0.00;0.62;3.17;2.47;;;20.40;27.60;;;;;;2251115;61;20849;-61
2023/11/23 10:06:37;0.00;0.00;0.62;0.00;0.00;0.62;3.70;2.40;;;20.40;27.60;;;;;;2251297;61;20360;-61
2023/11/23 10:09:26;0.00;0.00;0.62;0.00;0.00;0.62;3.00;2.47;;;20.40;27.60;;;;;;2253156;61;20471;-62
2023/11/23 10:12:11;0.00;0.00;0.62;0.00;0.00;0.62;3.27;2.67;;;20.40;27.60;;;;;;2251034;61;20918;-59
2023/11/23 10:14:56;0.00;0.00;0.62;0.00;0.00;0.62;3.07;2.43;;;20.40;27.60;;;;;;2250974;61;20794;-58
2023/11/23 10:17:41;0.00;0.00;0.62;0.00;0.00;0.62;3.30;3.00;;;20.40;27.60;;;;;;2251636;61;20437;-60
2023/11/23 10:20:26;0.00;0.00;0.62;0.00;0.00;0.62;3.90;2.77;;;20.40;27.60;;;;;;2251386;61;20938;-60
2023/11/23 10:23:12;0.00;0.00;0.62;0.00;0.00;0.62;4.47;3.10;;;20.40;27.60;;;;;;2253383;61;20374;-59
2023/11/23 10:25:58;0.00;0.00;0.62;0.00;0.00;0.62;4.23;3.13;;;20.40;27.60;;;;;;2255011;61;20359;-54
2023/11/23 10:28:42;0.00;0.00;0.62;0.00;0.00;0.62;4.30;3.43;;;20.40;27.60;;;;;;2254852;61;20394;-61
2023/11/23 10:31:29;0.00;0.00;0.62;0.00;0.00;0.62;4.40;3.30;;;20.40;27.60;;;;;;2254772;61;20414;-61
2023/11/23 10:34:17;0.00;0.00;0.62;0.00;0.00;0.62;4.23;3.43;;;20.40;27.60;;;;;;2255154;61;20491;-58
2023/11/23 10:37:01;0.00;0.00;0.62;0.00;0.00;0.62;4.13;3.50;;;20.40;27.60;;;;;;2254519;61;20362;-55
2023/11/23 10:39:46;0.00;0.00;0.62;0.00;0.00;0.62;6.33;3.93;;;20.40;27.70;;;;;;2254711;61;20411;-57
2023/11/23 10:42:33;0.00;0.00;0.62;0.00;0.00;0.62;4.80;3.77;;;20.40;27.70;;;;;;2254693;61;20507;-59
2023/11/23 10:45:19;0.00;0.00;0.62;0.00;0.00;0.62;4.40;3.17;;;20.40;27.70;;;;;;2254448;61;20394;-61
2023/11/23 10:48:05;0.00;0.00;0.62;0.00;0.00;0.62;4.40;3.60;;;20.50;27.80;;;;;;2255288;61;20366;-56
2023/11/23 10:50:50;0.00;0.00;0.62;0.00;0.00;0.62;5.60;3.40;;;20.50;27.80;;;;;;2254976;61;20418;-56